createdAt,value
2022-12-31T00:06:31.088Z,2.90
2022-12-31T00:16:34.845Z,2.00
2022-12-31T00:26:38.198Z,2.08
2022-12-31T00:36:40.502Z,2.40
2022-12-31T00:56:44.699Z,2.42
2022-12-31T01:06:48.014Z,2.42
2022-12-31T01:16:52.490Z,2.60
2022-12-31T01:26:55.864Z,2.95
2022-12-31T01:36:57.847Z,2.40
2022-12-31T01:47:03.821Z,3.33
2022-12-31T01:57:07.653Z,2.50
2022-12-31T02:07:12.135Z,2.10
2022-12-31T02:17:25.228Z,2.40
2022-12-31T02:27:41.284Z,1.77
2022-12-31T02:37:50.405Z,2.25
2022-12-31T02:48:16.864Z,4.32
2022-12-31T02:58:29.579Z,2.10
2022-12-31T03:08:31.516Z,1.25
2022-12-31T03:18:34.820Z,1.52
2022-12-31T03:28:38.730Z,1.10
2022-12-31T03:38:42.300Z,0.60
2022-12-31T03:48:44.242Z,0.40
2022-12-31T03:58:47.525Z,0.30
2022-12-31T04:08:49.487Z,0.50
2022-12-31T04:18:52.814Z,0.40
2022-12-31T04:28:54.775Z,0.43
2022-12-31T04:38:58.409Z,0.70
2022-12-31T04:49:01.197Z,0.57
2022-12-31T04:59:05.190Z,1.23
2022-12-31T05:09:07.164Z,2.80
2022-12-31T05:19:10.546Z,4.63
2022-12-31T05:29:12.475Z,2.22
2022-12-31T05:39:15.881Z,1.95
2022-12-31T05:49:17.815Z,1.50
2022-12-31T05:59:21.952Z,2.15
2022-12-31T06:09:24.020Z,2.72
2022-12-31T06:19:27.465Z,3.83
2022-12-31T06:29:29.432Z,3.85
2022-12-31T06:39:32.762Z,4.53
2022-12-31T06:49:34.678Z,3.28
2022-12-31T06:59:38.719Z,4.43
2022-12-31T07:09:50.106Z,4.40
2022-12-31T07:20:02.229Z,2.95
2022-12-31T07:30:09.648Z,4.35
2022-12-31T07:40:18.577Z,3.42
2022-12-31T07:50:21.017Z,3.50
2022-12-31T08:00:25.997Z,6.18
2022-12-31T08:10:37.935Z,3.03
2022-12-31T08:20:55.606Z,4.22
2022-12-31T08:31:01.786Z,3.22
2022-12-31T08:41:15.882Z,5.40
2022-12-31T08:51:20.874Z,4.20
2022-12-31T09:01:28.086Z,5.53
2022-12-31T09:11:38.741Z,4.75
2022-12-31T09:21:43.087Z,7.57
2022-12-31T09:31:49.755Z,4.25
2022-12-31T09:42:18.289Z,3.67
2022-12-31T09:52:29.243Z,5.28
2022-12-31T10:02:52.432Z,3.25
2022-12-31T10:13:22.765Z,2.38
2022-12-31T10:33:43.931Z,1.80
2022-12-31T10:44:20.986Z,2.10
2022-12-31T10:55:00.048Z,1.70
2022-12-31T11:05:33.659Z,1.08
2022-12-31T11:15:55.502Z,0.80
2022-12-31T11:26:09.982Z,0.52
2022-12-31T11:36:24.542Z,0.60
2022-12-31T11:46:48.598Z,0.50
2022-12-31T11:56:59.246Z,1.05
2022-12-31T12:07:02.681Z,1.95
2022-12-31T12:17:09.347Z,3.13
2022-12-31T12:27:23.198Z,3.00
2022-12-31T12:37:29.172Z,5.05
2022-12-31T12:47:33.562Z,3.42
2022-12-31T12:57:46.402Z,4.57
2022-12-31T13:07:57.156Z,3.35
2022-12-31T13:18:07.871Z,4.13
2022-12-31T13:28:14.840Z,3.88
2022-12-31T13:38:20.734Z,3.97
2022-12-31T13:48:32.420Z,4.60
2022-12-31T13:58:37.847Z,5.10
2022-12-31T14:08:41.191Z,5.20
2022-12-31T14:18:49.222Z,3.92
2022-12-31T14:29:02.449Z,4.10
2022-12-31T14:39:19.597Z,5.63
2022-12-31T14:49:37.122Z,7.50
2022-12-31T14:59:40.775Z,8.32
2022-12-31T15:10:09.705Z,8.52
2022-12-31T15:20:47.843Z,8.85
2022-12-31T15:31:00.585Z,7.93
2022-12-31T15:41:14.526Z,7.80
2022-12-31T15:51:22.541Z,6.75
2022-12-31T16:01:28.563Z,7.97
2022-12-31T16:11:36.960Z,8.63
2022-12-31T16:21:39.016Z,7.00
2022-12-31T16:31:43.522Z,12.00
2022-12-31T16:41:45.508Z,8.52
2022-12-31T16:51:49.435Z,9.27
2022-12-31T17:01:53.184Z,7.97
2022-12-31T17:11:57.959Z,9.30
2022-12-31T17:22:00.348Z,7.57
2022-12-31T17:32:06.157Z,7.40
2022-12-31T17:42:08.994Z,6.13
2022-12-31T17:52:15.215Z,8.20
2022-12-31T18:02:17.285Z,7.68
2022-12-31T18:12:21.063Z,7.32
2022-12-31T18:22:23.077Z,9.68
2022-12-31T18:32:28.349Z,9.65
2022-12-31T18:42:30.338Z,9.63
2022-12-31T18:52:33.802Z,7.15
2022-12-31T19:02:35.869Z,9.23
2022-12-31T19:12:39.310Z,8.70
2022-12-31T19:22:41.312Z,9.75
2022-12-31T19:32:44.759Z,10.95
2022-12-31T19:42:46.702Z,7.45
2022-12-31T19:52:51.622Z,7.82
2022-12-31T20:02:54.878Z,9.30
2022-12-31T20:12:58.323Z,8.20
2022-12-31T20:23:00.277Z,7.05
2022-12-31T20:33:03.711Z,7.22
2022-12-31T20:43:05.723Z,9.57
2022-12-31T20:53:09.037Z,8.45
2022-12-31T21:03:36.802Z,7.57
2022-12-31T21:13:34.302Z,6.20
2022-12-31T21:23:36.246Z,5.65
2022-12-31T21:33:39.547Z,4.55
2022-12-31T21:43:41.500Z,6.38
2022-12-31T21:53:44.885Z,6.05
2022-12-31T22:03:46.908Z,4.57
2022-12-31T22:13:50.980Z,3.30
2022-12-31T22:23:54.421Z,4.82
2022-12-31T22:33:58.285Z,3.45
2022-12-31T22:44:04.621Z,3.03
2022-12-31T22:54:09.516Z,2.78
2022-12-31T23:04:11.539Z,2.38
2022-12-31T23:14:17.012Z,3.03
2022-12-31T23:24:24.486Z,2.85
2022-12-31T23:34:29.680Z,3.27
2022-12-31T23:44:31.631Z,2.20
2022-12-31T23:54:35.088Z,3.80
